Time;durP1;ratioP1;P1;durP2;ratioP2;P2;SDS_P1;SDS_P2;PMS_P1;PMS_P2;Temp;Humidity;BMP_temperature;BMP_pressure;BME280_temperature;BME280_humidity;BME280_pressure;Samples;Min_cycle;Max_cycle;Signal;HPM_P1;HPM_P2
2022/09/22 00:01:16;;;;;;;0.77;0.65;;;13.70;99.90;;;;;;6086362;23;20073;-77
2022/09/22 00:03:47;;;;;;;1.85;0.90;;;13.60;99.90;;;;;;6061049;23;20060;-78
2022/09/22 00:06:19;;;;;;;1.10;0.95;;;13.60;99.90;;;;;;6086259;23;20081;-77
2022/09/22 00:08:50;;;;;;;0.63;0.63;;;13.50;99.90;;;;;;6086755;23;20446;-78
2022/09/22 00:11:19;;;;;;;1.50;0.77;;;13.50;99.90;;;;;;6062953;23;20484;-78
2022/09/22 00:13:54;;;;;;;1.55;1.02;;;13.40;99.90;;;;;;6089108;23;20033;-78
2022/09/22 00:16:29;;;;;;;0.98;0.70;;;13.40;99.90;;;;;;6064125;23;20018;-78
2022/09/22 00:18:56;;;;;;;0.60;0.52;;;13.40;99.90;;;;;;6087951;23;20029;-78
2022/09/22 00:21:26;;;;;;;1.02;0.82;;;13.30;99.90;;;;;;6064083;23;20030;-78
2022/09/22 00:23:53;;;;;;;0.85;0.50;;;13.30;99.90;;;;;;6089394;23;20028;-78
2022/09/22 00:26:21;;;;;;;1.30;0.80;;;13.20;99.90;;;;;;6064672;23;20029;-78
2022/09/22 00:28:50;;;;;;;0.68;0.50;;;13.20;99.90;;;;;;6088538;23;20030;-77
2022/09/22 00:31:18;;;;;;;1.10;0.70;;;13.10;99.90;;;;;;6087646;23;20026;-77
2022/09/22 00:33:45;;;;;;;0.93;0.68;;;13.10;99.90;;;;;;6088497;23;20026;-77
2022/09/22 00:36:13;;;;;;;0.55;0.40;;;13.00;99.90;;;;;;6064191;23;20397;-78
2022/09/22 00:38:40;;;;;;;0.70;0.60;;;13.00;99.90;;;;;;6063961;23;20094;-77
2022/09/22 00:41:09;;;;;;;0.80;0.68;;;13.00;99.90;;;;;;6088531;23;20022;-78
2022/09/22 00:43:37;;;;;;;0.80;0.60;;;12.90;99.90;;;;;;6088469;23;20033;-78
2022/09/22 00:46:07;;;;;;;1.05;0.60;;;12.80;99.90;;;;;;6088123;23;20026;-78
2022/09/22 00:48:38;;;;;;;0.93;0.60;;;12.80;99.90;;;;;;6088231;23;20320;-78
2022/09/22 00:51:06;;;;;;;1.40;0.90;;;12.80;99.90;;;;;;6088538;23;20029;-78
2022/09/22 00:53:33;;;;;;;0.65;0.47;;;12.70;99.90;;;;;;6063409;23;20030;-78
2022/09/22 00:56:05;;;;;;;0.77;0.60;;;12.70;99.90;;;;;;6086519;23;20022;-78
2022/09/22 00:58:40;;;;;;;0.68;0.57;;;12.60;99.90;;;;;;6087685;23;20040;-78
2022/09/22 01:01:08;;;;;;;0.45;0.45;;;12.50;99.90;;;;;;6064194;23;20022;-77
2022/09/22 01:03:38;;;;;;;0.45;0.45;;;12.50;99.90;;;;;;6087993;23;20029;-78
2022/09/22 01:06:05;;;;;;;0.70;0.50;;;12.50;99.90;;;;;;6088681;23;20324;-77
2022/09/22 01:08:33;;;;;;;1.08;0.60;;;12.50;99.90;;;;;;6063488;23;20026;-78
2022/09/22 01:10:59;;;;;;;0.73;0.45;;;12.50;99.90;;;;;;6064824;23;20028;-77
2022/09/22 01:13:37;;;;;;;0.85;0.57;;;12.40;99.90;;;;;;6088710;23;20063;-77
2022/09/22 01:16:13;;;;;;;0.93;0.63;;;12.40;99.90;;;;;;6066469;23;20372;-77
2022/09/22 01:19:06;;;;;;;1.08;0.60;;;12.40;99.90;;;;;;6087980;23;20061;-78
2022/09/22 01:22:08;;;;;;;1.38;0.80;;;12.30;99.90;;;;;;6090740;23;20022;-78
2022/09/22 01:24:41;;;;;;;1.35;0.70;;;12.30;99.90;;;;;;6071016;23;20033;-77
2022/09/22 01:27:22;;;;;;;0.98;0.63;;;12.30;99.90;;;;;;6113224;23;20033;-77
2022/09/22 01:30:03;;;;;;;0.35;0.35;;;12.30;99.90;;;;;;6090913;23;20026;-77
2022/09/22 01:32:40;;;;;;;0.65;0.50;;;12.30;99.90;;;;;;6092975;23;20030;-78
2022/09/22 01:35:39;;;;;;;0.52;0.50;;;12.20;99.90;;;;;;6090114;23;20029;-77
2022/09/22 01:38:35;;;;;;;0.80;0.50;;;12.10;99.90;;;;;;6076746;23;20319;-77
2022/09/22 01:41:16;;;;;;;0.63;0.50;;;12.10;99.90;;;;;;6095474;23;20172;-77
2022/09/22 01:43:46;;;;;;;0.63;0.55;;;12.10;99.90;;;;;;6094425;23;20021;-77
2022/09/22 01:46:24;;;;;;;0.88;0.60;;;12.10;99.90;;;;;;6092216;23;20315;-77
2022/09/22 01:48:50;;;;;;;0.45;0.30;;;11.90;99.90;;;;;;6091987;23;20105;-77
2022/09/22 01:51:25;;;;;;;0.63;0.52;;;11.90;99.90;;;;;;6091709;23;20045;-77
2022/09/22 01:54:01;;;;;;;0.82;0.63;;;11.80;99.90;;;;;;6092088;23;20397;-77
2022/09/22 01:56:28;;;;;;;0.68;0.50;;;11.80;99.90;;;;;;6068874;23;20022;-80
2022/09/22 01:58:58;;;;;;;0.70;0.50;;;11.70;99.90;;;;;;6091652;23;20029;-77
2022/09/22 02:01:36;;;;;;;0.70;0.63;;;11.70;99.90;;;;;;6091669;23;20101;-77
2022/09/22 02:04:10;;;;;;;0.65;0.57;;;11.70;99.90;;;;;;6067848;23;20036;-77
2022/09/22 02:06:47;;;;;;;1.13;0.70;;;11.70;99.90;;;;;;6091181;23;20121;-77
2022/09/22 02:09:18;;;;;;;0.55;0.45;;;11.70;99.90;;;;;;6092748;23;20026;-77
2022/09/22 02:11:45;;;;;;;1.50;0.90;;;11.60;99.90;;;;;;6092292;23;20029;-77
2022/09/22 02:14:12;;;;;;;0.77;0.60;;;11.70;99.90;;;;;;6092679;23;20033;-77
2022/09/22 02:16:38;;;;;;;1.63;1.17;;;11.70;99.90;;;;;;6091965;23;20213;-77
2022/09/22 02:19:09;;;;;;;1.10;0.65;;;11.70;99.90;;;;;;6092056;23;20037;-77
2022/09/22 02:21:39;;;;;;;0.90;0.60;;;11.60;99.90;;;;;;6117192;23;20022;-77
2022/09/22 02:24:23;;;;;;;1.67;0.65;;;11.60;99.90;;;;;;6092567;23;20120;-77
2022/09/22 02:26:49;;;;;;;1.02;0.70;;;11.60;99.90;;;;;;6092191;23;20044;-78
2022/09/22 02:29:16;;;;;;;1.35;0.90;;;11.50;99.90;;;;;;6069177;23;20092;-77
2022/09/22 02:31:44;;;;;;;1.00;0.68;;;11.50;99.90;;;;;;6067705;23;20057;-78
2022/09/22 02:34:11;;;;;;;0.75;0.50;;;11.50;99.90;;;;;;6091436;23;20026;-77
2022/09/22 02:36:47;;;;;;;0.70;0.50;;;11.50;99.90;;;;;;6091867;23;20018;-77
2022/09/22 02:39:18;;;;;;;1.02;0.90;;;11.50;99.90;;;;;;6091753;23;20457;-77
2022/09/22 02:42:14;;;;;;;0.98;0.80;;;11.40;99.90;;;;;;6068211;23;20026;-77
2022/09/22 02:45:01;;;;;;;1.17;0.75;;;11.40;99.90;;;;;;6092821;23;20022;-77
2022/09/22 02:47:35;;;;;;;1.52;0.55;;;11.40;99.90;;;;;;6071280;23;20022;-77
2022/09/22 02:50:04;;;;;;;0.70;0.60;;;11.30;99.90;;;;;;6092090;23;20072;-76
2022/09/22 02:52:31;;;;;;;1.00;0.70;;;11.30;99.90;;;;;;6090599;23;20026;-77
2022/09/22 02:54:58;;;;;;;1.08;0.68;;;11.30;99.90;;;;;;6092102;23;20609;-77
2022/09/22 02:57:24;;;;;;;1.08;0.60;;;11.30;99.90;;;;;;6067879;23;20097;-77
2022/09/22 02:59:51;;;;;;;0.80;0.60;;;11.30;99.90;;;;;;6068508;23;20018;-77
2022/09/22 03:02:18;;;;;;;1.02;0.52;;;11.30;99.90;;;;;;6090935;23;20029;-77
2022/09/22 03:04:45;;;;;;;0.60;0.50;;;11.30;99.90;;;;;;6091546;23;20022;-77
2022/09/22 03:07:11;;;;;;;1.23;0.65;;;11.20;99.90;;;;;;6090696;23;20026;-77
2022/09/22 03:09:38;;;;;;;0.57;0.50;;;11.10;99.90;;;;;;6091955;23;20029;-77
2022/09/22 03:12:05;;;;;;;0.77;0.55;;;11.10;99.90;;;;;;6091411;23;20053;-77
2022/09/22 03:14:32;;;;;;;0.73;0.52;;;11.10;99.90;;;;;;6091948;23;20018;-77
2022/09/22 03:16:58;;;;;;;0.60;0.50;;;11.00;99.90;;;;;;6067466;23;20034;-76
2022/09/22 03:19:25;;;;;;;1.05;0.68;;;11.00;99.90;;;;;;6068005;23;20018;-77
2022/09/22 03:21:52;;;;;;;0.82;0.60;;;11.00;99.90;;;;;;6090933;23;20495;-77
2022/09/22 03:24:18;;;;;;;0.80;0.60;;;11.00;99.90;;;;;;6092040;23;20028;-77
2022/09/22 03:26:45;;;;;;;0.57;0.55;;;11.00;99.90;;;;;;6067817;23;20555;-77
2022/09/22 03:29:12;;;;;;;0.68;0.50;;;10.90;99.90;;;;;;6091872;23;20033;-77
2022/09/22 03:31:39;;;;;;;1.25;0.60;;;10.90;99.90;;;;;;6090486;23;20787;-77
2022/09/22 03:34:05;;;;;;;0.60;0.50;;;10.90;99.90;;;;;;6091797;23;20050;-77
2022/09/22 03:36:32;;;;;;;1.00;0.88;;;10.90;99.90;;;;;;6114947;23;20036;-78
2022/09/22 03:38:59;;;;;;;0.38;0.38;;;11.00;99.90;;;;;;6091599;23;20177;-77
2022/09/22 03:41:26;;;;;;;0.95;0.40;;;10.90;99.90;;;;;;6068163;23;20026;-77
2022/09/22 03:43:52;;;;;;;1.10;0.70;;;10.90;99.90;;;;;;6068046;23;20026;-77
2022/09/22 03:46:19;;;;;;;1.35;0.80;;;10.90;99.90;;;;;;6090790;23;20100;-78
2022/09/22 03:48:46;;;;;;;0.77;0.63;;;10.80;99.90;;;;;;6069903;23;20026;-77
2022/09/22 03:51:13;;;;;;;0.70;0.63;;;10.80;99.90;;;;;;6092760;23;20021;-77
2022/09/22 03:53:40;;;;;;;0.38;0.38;;;10.70;99.90;;;;;;6069702;23;20028;-77
2022/09/22 03:56:12;;;;;;;1.10;0.55;;;10.70;99.90;;;;;;6119425;23;20037;-77
2022/09/22 03:58:39;;;;;;;0.50;0.50;;;10.60;99.90;;;;;;6094569;23;20068;-77
2022/09/22 04:01:06;;;;;;;0.70;0.50;;;10.60;99.90;;;;;;6093659;23;20127;-77
2022/09/22 04:03:33;;;;;;;0.70;0.50;;;10.60;99.90;;;;;;6092664;23;20469;-78
2022/09/22 04:06:00;;;;;;;0.60;0.60;;;10.60;99.90;;;;;;6069558;23;20695;-77
2022/09/22 04:08:26;;;;;;;0.80;0.52;;;10.60;99.90;;;;;;6092316;23;20018;-78
2022/09/22 04:10:56;;;;;;;0.68;0.50;;;10.60;99.90;;;;;;6094702;23;20026;-77
2022/09/22 04:13:23;;;;;;;1.23;0.52;;;10.50;99.90;;;;;;6094274;23;20022;-77
2022/09/22 04:15:49;;;;;;;0.63;0.43;;;10.50;99.90;;;;;;6098537;23;20082;-77
2022/09/22 04:18:16;;;;;;;0.60;0.55;;;10.50;99.90;;;;;;6070004;23;20028;-77
2022/09/22 04:20:44;;;;;;;0.30;0.30;;;10.50;99.90;;;;;;6093999;23;20026;-77
2022/09/22 04:23:11;;;;;;;0.60;0.40;;;10.50;99.90;;;;;;6092933;23;20022;-77
2022/09/22 04:25:38;;;;;;;0.90;0.60;;;10.50;99.90;;;;;;6069688;23;20025;-77
2022/09/22 04:28:05;;;;;;;1.75;0.60;;;10.40;99.90;;;;;;6069624;23;20022;-78
2022/09/22 04:30:32;;;;;;;0.75;0.73;;;10.50;99.90;;;;;;6069357;23;20435;-78
2022/09/22 04:32:59;;;;;;;1.13;0.70;;;10.40;99.90;;;;;;6068145;23;20090;-77
2022/09/22 04:35:27;;;;;;;1.02;0.63;;;10.40;99.90;;;;;;6093022;23;20338;-78
2022/09/22 04:37:54;;;;;;;1.00;0.60;;;10.40;99.90;;;;;;6092709;23;20018;-78
2022/09/22 04:40:22;;;;;;;0.77;0.65;;;10.40;99.90;;;;;;6093677;23;20109;-78
2022/09/22 04:42:49;;;;;;;0.65;0.60;;;10.50;99.90;;;;;;6069374;23;20022;-78
2022/09/22 04:45:15;;;;;;;0.90;0.55;;;10.40;99.90;;;;;;6093273;23;20021;-79
2022/09/22 04:47:47;;;;;;;0.88;0.60;;;10.40;99.90;;;;;;6091304;23;20018;-78
2022/09/22 04:50:14;;;;;;;0.93;0.63;;;10.40;99.90;;;;;;6087251;23;20040;-78
2022/09/22 04:52:48;;;;;;;0.60;0.60;;;10.40;99.90;;;;;;6089148;23;20025;-79
2022/09/22 04:55:15;;;;;;;1.10;0.73;;;10.40;99.90;;;;;;6091330;23;20355;-78
2022/09/22 04:57:47;;;;;;;0.85;0.68;;;10.40;99.90;;;;;;6065134;23;20018;-79
2022/09/22 05:00:14;;;;;;;1.08;0.80;;;10.40;99.90;;;;;;6066225;23;20121;-79
2022/09/22 05:02:40;;;;;;;0.60;0.55;;;10.40;99.90;;;;;;6087782;23;20049;-78
2022/09/22 05:05:08;;;;;;;0.90;0.70;;;10.40;99.90;;;;;;6086918;23;20049;-82
2022/09/22 05:07:34;;;;;;;1.48;1.20;;;10.40;99.90;;;;;;6062147;23;20108;-78
2022/09/22 05:10:04;;;;;;;0.90;0.70;;;10.40;99.90;;;;;;6063898;23;20033;-78
2022/09/22 05:12:32;;;;;;;1.88;0.80;;;10.30;99.90;;;;;;6065374;23;20343;-78
2022/09/22 05:14:59;;;;;;;1.00;0.80;;;10.40;99.90;;;;;;6087786;23;20143;-78
2022/09/22 05:17:26;;;;;;;1.77;1.10;;;10.40;99.90;;;;;;6066056;23;20125;-79
2022/09/22 05:19:54;;;;;;;1.30;0.80;;;10.30;99.90;;;;;;6115053;23;20022;-79
2022/09/22 05:22:21;;;;;;;1.45;1.02;;;10.40;99.90;;;;;;6091474;23;20064;-78
2022/09/22 05:24:48;;;;;;;1.83;1.10;;;10.40;99.90;;;;;;6092808;23;20032;-78
2022/09/22 05:27:15;;;;;;;1.45;1.30;;;10.40;99.90;;;;;;6089242;23;20063;-78
2022/09/22 05:29:41;;;;;;;0.93;0.73;;;10.40;99.90;;;;;;6087886;23;20022;-78
2022/09/22 05:32:09;;;;;;;1.60;1.00;;;10.40;99.90;;;;;;6065248;23;20117;-78
2022/09/22 05:34:35;;;;;;;0.93;0.80;;;10.40;99.90;;;;;;6116465;23;20096;-78
2022/09/22 05:37:02;;;;;;;1.25;0.85;;;10.40;99.90;;;;;;6115931;23;20483;-78
2022/09/22 05:39:29;;;;;;;1.50;0.90;;;10.30;99.90;;;;;;6115353;23;20022;-78
2022/09/22 05:41:56;;;;;;;1.33;0.88;;;10.30;99.90;;;;;;6067843;23;20033;-79
2022/09/22 05:44:23;;;;;;;1.30;0.90;;;10.30;99.90;;;;;;6118350;23;20097;-79
2022/09/22 05:46:50;;;;;;;0.70;0.70;;;10.30;99.90;;;;;;6087982;23;20350;-79
2022/09/22 05:49:16;;;;;;;1.48;1.15;;;10.30;99.90;;;;;;6111508;23;20538;-79
2022/09/22 05:51:43;;;;;;;1.25;0.90;;;10.30;99.90;;;;;;6110013;23;20597;-78
2022/09/22 05:54:11;;;;;;;0.88;0.75;;;10.40;99.90;;;;;;6114064;23;20101;-78
2022/09/22 05:56:37;;;;;;;1.63;0.85;;;10.40;99.90;;;;;;6088361;23;20022;-78
2022/09/22 05:59:04;;;;;;;1.02;0.80;;;10.40;99.90;;;;;;6116231;23;20126;-79
2022/09/22 06:01:31;;;;;;;2.15;1.17;;;10.40;99.90;;;;;;6059408;23;20023;-79
2022/09/22 06:03:58;;;;;;;1.45;0.88;;;10.40;99.90;;;;;;6083032;23;20808;-78
2022/09/22 06:06:25;;;;;;;1.08;0.80;;;10.40;99.90;;;;;;6082808;23;20026;-77
2022/09/22 06:08:52;;;;;;;1.02;0.80;;;10.40;99.90;;;;;;6082980;23;20026;-77
2022/09/22 06:11:18;;;;;;;0.90;0.73;;;10.50;99.90;;;;;;6084046;23;20025;-77
2022/09/22 06:13:49;;;;;;;1.02;0.80;;;10.50;99.90;;;;;;6083324;23;20509;-77
2022/09/22 06:16:19;;;;;;;0.80;0.70;;;10.50;99.90;;;;;;6081916;23;20301;-75
2022/09/22 06:18:46;;;;;;;1.38;1.00;;;10.60;99.90;;;;;;6059607;23;20104;-76
2022/09/22 06:21:15;;;;;;;1.45;0.90;;;10.60;99.90;;;;;;6058989;23;20028;-75
2022/09/22 06:23:42;;;;;;;1.25;0.90;;;10.70;99.90;;;;;;6082757;23;20026;-76
2022/09/22 06:26:09;;;;;;;0.82;0.68;;;10.70;99.90;;;;;;6084153;23;20389;-75
2022/09/22 06:28:36;;;;;;;1.25;0.98;;;10.70;99.90;;;;;;6083191;23;20096;-75
2022/09/22 06:31:03;;;;;;;0.85;0.80;;;10.80;99.90;;;;;;6060282;23;20053;-75
2022/09/22 06:33:30;;;;;;;1.08;0.80;;;10.80;99.90;;;;;;6080137;23;20026;-76
2022/09/22 06:35:57;;;;;;;0.52;0.50;;;10.80;99.90;;;;;;6081761;23;20511;-76
2022/09/22 06:38:23;;;;;;;1.10;0.90;;;10.90;99.90;;;;;;6080440;23;20100;-77
2022/09/22 06:40:51;;;;;;;0.60;0.60;;;10.90;99.90;;;;;;6080772;23;20037;-77
2022/09/22 06:43:21;;;;;;;0.60;0.50;;;11.00;99.90;;;;;;6080746;23;20026;-77
2022/09/22 06:45:52;;;;;;;0.82;0.60;;;11.00;99.90;;;;;;6105683;23;20293;-76
2022/09/22 06:48:21;;;;;;;0.73;0.60;;;11.10;99.90;;;;;;6081368;23;20022;-76
2022/09/22 06:50:49;;;;;;;0.60;0.50;;;11.20;99.90;;;;;;6082686;23;20072;-76
2022/09/22 06:53:17;;;;;;;0.93;0.65;;;11.20;99.90;;;;;;6081867;23;20190;-76
2022/09/22 06:55:44;;;;;;;0.80;0.55;;;11.30;99.90;;;;;;6061259;23;20084;-76
2022/09/22 06:58:12;;;;;;;0.73;0.50;;;11.40;99.90;;;;;;6059663;23;20029;-77
2022/09/22 07:00:41;;;;;;;1.00;0.60;;;11.50;99.90;;;;;;6059997;23;20037;-77
2022/09/22 07:03:19;;;;;;;1.27;0.65;;;11.60;99.90;;;;;;6058803;23;20025;-76
2022/09/22 07:06:02;;;;;;;0.80;0.50;;;11.60;99.90;;;;;;6058765;23;20032;-76
2022/09/22 07:08:30;;;;;;;0.50;0.50;;;11.70;99.90;;;;;;6081604;23;20024;-76
2022/09/22 07:11:01;;;;;;;1.23;0.57;;;11.80;99.90;;;;;;6083028;23;20044;-77
2022/09/22 07:13:29;;;;;;;0.98;0.50;;;11.90;99.90;;;;;;6058501;23;20025;-76
2022/09/22 07:16:00;;;;;;;0.73;0.50;;;12.00;99.90;;;;;;6059076;23;20041;-76
2022/09/22 07:18:28;;;;;;;0.45;0.30;;;12.00;99.90;;;;;;6082840;23;20049;-76
2022/09/22 07:21:09;;;;;;;0.75;0.50;;;12.10;99.90;;;;;;6082669;23;20366;-77
2022/09/22 07:23:35;;;;;;;1.00;0.63;;;12.20;99.90;;;;;;6082541;23;20034;-76
2022/09/22 07:26:06;;;;;;;1.00;0.75;;;12.30;99.90;;;;;;6083069;23;20018;-76
2022/09/22 07:28:34;;;;;;;0.73;0.50;;;12.40;99.90;;;;;;6082122;23;20055;-76
2022/09/22 07:31:04;;;;;;;0.40;0.40;;;12.40;99.90;;;;;;6058508;23;20029;-77
2022/09/22 07:33:35;;;;;;;0.38;0.38;;;12.50;99.90;;;;;;6082202;23;20033;-76
2022/09/22 07:36:09;;;;;;;0.55;0.50;;;12.60;99.90;;;;;;6082620;23;20510;-76
2022/09/22 07:38:36;;;;;;;0.45;0.45;;;12.60;99.90;;;;;;6082913;23;20390;-76
2022/09/22 07:41:06;;;;;;;0.40;0.40;;;12.70;99.90;;;;;;6082432;23;20036;-76
2022/09/22 07:43:33;;;;;;;0.45;0.40;;;12.80;99.90;;;;;;6083370;23;20173;-76
2022/09/22 07:46:00;;;;;;;0.30;0.30;;;12.90;99.90;;;;;;6059766;23;20058;-76
2022/09/22 07:48:41;;;;;;;0.30;0.30;;;13.00;99.90;;;;;;6059222;23;20373;-77
2022/09/22 07:51:19;;;;;;;0.43;0.25;;;13.10;99.90;;;;;;6085005;23;20026;-76
2022/09/22 07:53:48;;;;;;;0.40;0.40;;;13.20;99.90;;;;;;6083244;23;20021;-76
2022/09/22 07:56:16;;;;;;;0.60;0.38;;;13.30;99.90;;;;;;6083113;23;20036;-76
2022/09/22 07:58:52;;;;;;;0.68;0.40;;;13.30;99.90;;;;;;6059606;23;20026;-76
2022/09/22 08:01:21;;;;;;;0.32;0.32;;;13.50;99.90;;;;;;6082192;23;20036;-76
2022/09/22 08:03:49;;;;;;;0.30;0.30;;;13.60;99.90;;;;;;6082394;23;20022;-75
2022/09/22 08:06:17;;;;;;;0.28;0.25;;;13.70;99.90;;;;;;6081611;23;20032;-75
2022/09/22 08:08:52;;;;;;;0.25;0.22;;;13.80;99.90;;;;;;6057957;23;20053;-76
2022/09/22 08:11:20;;;;;;;0.80;0.40;;;14.00;99.90;;;;;;6059566;23;20069;-74
2022/09/22 08:13:55;;;;;;;0.50;0.50;;;14.10;99.90;;;;;;6058736;23;20528;-77
2022/09/22 08:16:23;;;;;;;0.22;0.22;;;14.20;99.90;;;;;;6057302;23;20037;-77
2022/09/22 08:18:55;;;;;;;1.45;0.70;;;14.40;99.90;;;;;;6082265;23;20026;-78
2022/09/22 08:21:23;;;;;;;0.57;0.53;;;14.50;99.90;;;;;;6082447;23;20077;-77
2022/09/22 08:23:51;;;;;;;0.47;0.43;;;14.60;99.90;;;;;;6058832;23;20661;-78
2022/09/22 08:26:21;;;;;;;0.82;0.60;;;14.80;99.90;;;;;;6056330;23;20022;-78
2022/09/22 08:28:51;;;;;;;0.98;0.75;;;14.90;99.90;;;;;;6081554;23;20034;-78
2022/09/22 08:31:19;;;;;;;0.77;0.65;;;15.10;99.90;;;;;;6057986;23;20258;-77
2022/09/22 08:33:48;;;;;;;1.15;0.70;;;15.20;99.90;;;;;;6083796;23;20518;-77
2022/09/22 08:36:15;;;;;;;0.90;0.60;;;15.30;99.90;;;;;;6059830;23;20464;-77
2022/09/22 08:38:47;;;;;;;0.85;0.68;;;15.50;99.90;;;;;;6084275;23;20074;-78
2022/09/22 08:41:49;;;;;;;0.60;0.60;;;15.60;99.90;;;;;;6083884;23;20036;-78
2022/09/22 08:44:19;;;;;;;1.40;0.98;;;15.70;99.90;;;;;;6081148;23;20026;-78
2022/09/22 08:46:46;;;;;;;0.98;0.70;;;15.90;99.90;;;;;;6058139;23;20032;-78
2022/09/22 08:52:04;;;;;;;0.73;0.65;;;16.20;99.90;;;;;;6086016;23;20032;-77
2022/09/22 08:54:31;;;;;;;1.17;0.88;;;16.30;99.90;;;;;;6084650;23;20029;-79
2022/09/22 08:57:11;;;;;;;0.88;0.70;;;16.30;99.90;;;;;;6060454;23;20399;-79
2022/09/22 08:59:50;;;;;;;0.85;0.70;;;16.50;99.90;;;;;;6060431;23;20034;-79
2022/09/22 09:02:34;;;;;;;1.55;0.90;;;16.60;99.90;;;;;;6082440;23;20626;-79
2022/09/22 09:05:29;;;;;;;1.67;1.08;;;16.60;99.90;;;;;;6050295;23;20031;-79
2022/09/22 09:08:29;;;;;;;0.63;0.60;;;16.70;99.90;;;;;;6049439;23;20030;-79
2022/09/22 09:11:19;;;;;;;0.60;0.50;;;16.80;99.90;;;;;;6052044;23;20026;-80
2022/09/22 09:14:16;;;;;;;0.60;0.60;;;17.00;99.90;;;;;;6026595;23;20413;-77
2022/09/22 09:16:55;;;;;;;0.60;0.50;;;17.10;99.90;;;;;;6049026;23;20054;-77
2022/09/22 09:19:28;;;;;;;1.13;0.57;;;17.30;99.90;;;;;;6051944;23;20027;-79
2022/09/22 09:21:57;;;;;;;0.65;0.57;;;17.50;99.90;;;;;;6053770;23;20666;-77
2022/09/22 09:24:36;;;;;;;1.17;0.80;;;17.60;99.90;;;;;;6026930;23;20018;-77
2022/09/22 09:27:25;;;;;;;0.52;0.40;;;17.70;99.90;;;;;;6030709;23;20031;-77
2022/09/22 09:29:55;;;;;;;0.47;0.43;;;17.70;99.90;;;;;;6049935;23;20019;-77
2022/09/22 09:32:42;;;;;;;1.00;0.60;;;17.70;99.90;;;;;;6049744;23;20037;-77
2022/09/22 09:35:13;;;;;;;0.60;0.45;;;17.80;99.90;;;;;;6026660;23;20443;-77
2022/09/22 09:37:43;;;;;;;0.68;0.52;;;17.80;99.90;;;;;;6049880;23;20572;-77
2022/09/22 09:40:14;;;;;;;0.88;0.40;;;17.90;99.90;;;;;;6026677;23;20141;-80
2022/09/22 09:42:41;;;;;;;1.00;0.70;;;18.00;99.90;;;;;;6027302;23;20580;-79
2022/09/22 09:45:17;;;;;;;0.63;0.50;;;18.10;99.90;;;;;;6050603;23;20105;-77
2022/09/22 09:48:03;;;;;;;0.85;0.50;;;18.10;99.90;;;;;;6049737;23;20359;-77
2022/09/22 09:50:30;;;;;;;1.38;0.93;;;18.20;99.90;;;;;;6049990;23;20467;-77
2022/09/22 09:52:58;;;;;;;0.85;0.68;;;18.20;99.90;;;;;;6025201;23;20130;-77
2022/09/22 09:55:25;;;;;;;1.17;0.70;;;18.30;99.90;;;;;;6050418;23;20128;-77
2022/09/22 10:00:29;;;;;;;0.82;0.70;;;18.40;99.90;;;;;;6027282;23;20023;-77
2022/09/22 10:00:58;;;;;;;0.80;0.60;;;18.60;99.90;;;;;;6050151;23;20424;-77
2022/09/22 10:03:29;;;;;;;1.42;0.60;;;18.60;99.90;;;;;;6035551;23;20034;-77
2022/09/22 10:05:59;;;;;;;0.35;0.35;;;18.70;99.90;;;;;;6083812;23;20022;-77
2022/09/22 10:08:26;;;;;;;0.73;0.50;;;18.90;99.90;;;;;;6080131;23;20106;-77
2022/09/22 10:11:00;;;;;;;0.82;0.57;;;19.00;99.90;;;;;;6058870;23;20030;-78
2022/09/22 10:13:35;;;;;;;1.27;0.60;;;19.10;99.90;;;;;;6082710;23;20309;-77
2022/09/22 10:16:04;;;;;;;1.05;0.80;;;19.10;99.90;;;;;;6058649;23;20028;-77
2022/09/22 10:18:38;;;;;;;1.30;0.70;;;19.20;99.90;;;;;;6081894;23;20018;-77
2022/09/22 10:21:19;;;;;;;0.82;0.70;;;19.30;99.90;;;;;;6057451;23;20022;-77
2022/09/22 10:23:47;;;;;;;0.80;0.43;;;19.40;99.90;;;;;;6081943;23;20137;-77
2022/09/22 10:26:21;;;;;;;0.90;0.60;;;19.50;99.90;;;;;;6081875;23;20027;-78
2022/09/22 10:29:06;;;;;;;1.52;0.70;;;19.70;99.90;;;;;;6080950;23;20475;-77
2022/09/22 10:31:37;;;;;;;1.20;0.80;;;19.70;99.90;;;;;;6079897;23;20343;-76
2022/09/22 10:34:05;;;;;;;1.08;0.70;;;19.70;99.90;;;;;;6056321;23;20053;-77
2022/09/22 10:36:32;;;;;;;1.35;0.70;;;19.60;99.90;;;;;;6079682;23;20084;-76
2022/09/22 10:38:58;;;;;;;0.43;0.40;;;19.60;99.90;;;;;;6057698;23;20428;-76
2022/09/22 10:41:29;;;;;;;0.95;0.70;;;19.80;99.90;;;;;;6080257;23;20675;-76
2022/09/22 10:44:00;;;;;;;1.17;0.80;;;19.80;99.90;;;;;;6056781;23;20033;-76
2022/09/22 10:47:12;;;;;;;0.77;0.60;;;19.90;99.90;;;;;;6080905;23;20025;-77
2022/09/22 10:49:49;;;;;;;0.70;0.60;;;20.10;99.90;;;;;;6057486;23;20132;-76
2022/09/22 10:52:43;;;;;;;0.82;0.65;;;20.20;99.90;;;;;;6055430;23;20486;-76
2022/09/22 10:55:18;;;;;;;1.17;0.73;;;20.40;99.90;;;;;;6082163;23;20037;-77
2022/09/22 10:58:05;;;;;;;0.80;0.65;;;20.60;99.90;;;;;;6082175;23;20434;-76
2022/09/22 11:00:33;;;;;;;0.70;0.50;;;20.70;99.90;;;;;;6081288;23;20066;-76
2022/09/22 11:03:46;;;;;;;0.80;0.60;;;20.70;99.90;;;;;;6078855;23;20026;-76
2022/09/22 11:12:25;;;;;;;0.73;0.50;;;20.80;99.90;;;;;;6081962;23;20234;-76
2022/09/22 11:15:16;;;;;;;1.25;0.73;;;20.70;99.90;;;;;;6056304;23;20110;-76
2022/09/22 11:17:59;;;;;;;1.00;0.60;;;20.70;99.90;;;;;;6055656;23;20586;-77
2022/09/22 11:21:11;;;;;;;0.95;0.63;;;20.80;99.90;;;;;;6081161;23;20789;-76
2022/09/22 11:24:02;;;;;;;0.70;0.45;;;21.00;99.90;;;;;;6072110;23;20022;-76
2022/09/22 11:26:57;;;;;;;0.57;0.40;;;21.30;99.90;;;;;;6081941;23;20032;-76
2022/09/22 11:29:58;;;;;;;1.05;0.57;;;21.90;99.90;;;;;;6056279;23;20073;-76
2022/09/22 11:32:31;;;;;;;1.48;0.50;;;22.10;99.90;;;;;;6081009;23;20529;-76
2022/09/22 11:35:05;;;;;;;;;;;22.30;99.90;;;;;;6080755;23;20121;-77
2022/09/22 11:37:36;;;;;;;0.80;0.45;;;22.40;99.90;;;;;;6079174;23;19921;-76
2022/09/22 11:40:05;;;;;;;0.73;0.45;;;22.30;99.90;;;;;;6080849;23;20050;-76
2022/09/22 11:43:22;;;;;;;1.13;0.70;;;22.30;99.90;;;;;;6079558;23;20383;-76
2022/09/22 11:46:21;;;;;;;0.85;0.47;;;22.10;99.90;;;;;;6027815;23;20043;-76
2022/09/22 11:49:04;;;;;;;0.93;0.70;;;22.10;99.90;;;;;;6055620;23;20160;-77
2022/09/22 11:51:43;;;;;;;;;;;21.90;99.90;;;;;;6079257;23;20042;-77
2022/09/22 11:54:19;;;;;;;1.02;0.70;;;21.80;99.90;;;;;;6080298;23;19921;-76
2022/09/22 11:56:50;;;;;;;1.10;0.68;;;21.70;99.90;;;;;;6080666;23;20026;-76
2022/09/22 11:59:56;;;;;;;0.68;0.47;;;22.00;99.90;;;;;;6078076;23;20049;-76
2022/09/22 12:02:27;;;;;;;0.70;0.50;;;22.10;99.90;;;;;;6052482;23;20054;-76
2022/09/22 12:05:09;;;;;;;1.27;0.70;;;22.40;99.90;;;;;;6076515;23;20027;-76
2022/09/22 12:07:38;;;;;;;0.50;0.50;;;22.80;99.90;;;;;;6076311;23;20245;-76
2022/09/22 12:10:06;;;;;;;1.08;0.70;;;23.00;99.90;;;;;;6078876;23;20054;-76
2022/09/22 12:12:33;;;;;;;0.80;0.70;;;23.00;99.90;;;;;;6078641;23;20053;-76
2022/09/22 12:15:19;;;;;;;1.45;0.77;;;23.00;99.90;;;;;;6078990;23;20033;-76
2022/09/22 12:17:50;;;;;;;1.15;0.80;;;23.30;99.90;;;;;;6080008;23;20022;-76
2022/09/22 12:20:28;;;;;;;0.82;0.55;;;23.40;99.90;;;;;;6078324;23;20723;-76
2022/09/22 12:23:10;;;;;;;0.73;0.57;;;23.50;99.30;;;;;;6077161;23;20121;-76
2022/09/22 12:25:53;;;;;;;0.52;0.52;;;23.70;99.70;;;;;;6079823;23;20021;-76
2022/09/22 12:28:25;;;;;;;0.63;0.60;;;23.90;99.60;;;;;;6078268;23;20027;-77
2022/09/22 12:31:17;;;;;;;0.95;0.65;;;24.10;98.50;;;;;;6055755;23;20060;-76
2022/09/22 12:33:48;;;;;;;2.03;0.60;;;24.20;98.40;;;;;;6055009;23;20029;-76
2022/09/22 12:36:16;;;;;;;0.63;0.50;;;24.00;98.60;;;;;;6078963;23;20614;-76
2022/09/22 12:38:45;;;;;;;0.82;0.70;;;23.90;98.40;;;;;;6079094;23;20065;-77
2022/09/22 12:41:16;;;;;;;1.83;0.90;;;24.00;98.20;;;;;;6077044;23;20027;-77
2022/09/22 12:43:44;;;;;;;1.02;0.73;;;24.00;98.10;;;;;;6054442;23;20349;-77
2022/09/22 12:46:24;;;;;;;2.45;0.60;;;24.20;98.30;;;;;;6078715;23;20057;-75
2022/09/22 12:48:51;;;;;;;0.93;0.65;;;24.40;97.80;;;;;;6078876;23;20049;-76
2022/09/22 12:51:23;;;;;;;1.00;0.50;;;24.40;97.50;;;;;;6078019;23;20030;-76
2022/09/22 12:53:50;;;;;;;;;;;24.00;97.90;;;;;;6081108;23;20018;-76
2022/09/22 12:56:39;;;;;;;0.60;0.55;;;24.00;97.80;;;;;;6078778;23;20303;-76
2022/09/22 12:59:34;;;;;;;0.60;0.50;;;24.00;97.80;;;;;;6081136;23;20030;-77
2022/09/22 13:02:14;;;;;;;0.30;0.30;;;23.90;97.70;;;;;;6079462;23;20026;-77
2022/09/22 13:05:03;;;;;;;0.80;0.40;;;23.50;98.00;;;;;;6078125;23;20214;-76
2022/09/22 13:07:39;;;;;;;0.65;0.50;;;23.40;99.00;;;;;;6062568;23;20022;-76
2022/09/22 13:10:21;;;;;;;0.80;0.68;;;23.30;98.00;;;;;;6078159;23;20034;-76
2022/09/22 13:13:06;;;;;;;0.40;0.40;;;23.50;98.30;;;;;;6079727;23;20029;-78
2022/09/22 13:15:36;;;;;;;1.25;0.60;;;23.50;98.50;;;;;;6080375;23;20606;-77
2022/09/22 13:18:03;;;;;;;1.52;0.75;;;23.30;98.50;;;;;;6077311;23;20022;-77
2022/09/22 13:20:31;;;;;;;0.93;0.47;;;23.20;98.90;;;;;;6079866;23;20622;-77
2022/09/22 13:23:11;;;;;;;0.57;0.50;;;23.00;99.10;;;;;;6054828;23;20050;-77
2022/09/22 13:25:38;;;;;;;1.30;0.77;;;23.30;99.30;;;;;;6055210;23;20072;-77